sensor_id;sensor_type;location;lat;lon;timestamp;P1;durP1;ratioP1;P2;durP2;ratioP2
20814;SDS011;10568;48.176;16.316;2023-01-08T00:02:10;23.70;;;12.20;;
20814;SDS011;10568;48.176;16.316;2023-01-08T00:04:37;23.20;;;11.87;;
20814;SDS011;10568;48.176;16.316;2023-01-08T00:07:03;24.17;;;11.97;;
20814;SDS011;10568;48.176;16.316;2023-01-08T00:09:28;22.57;;;11.63;;
20814;SDS011;10568;48.176;16.316;2023-01-08T00:11:54;18.10;;;10.87;;
20814;SDS011;10568;48.176;16.316;2023-01-08T00:14:20;23.10;;;12.03;;
20814;SDS011;10568;48.176;16.316;2023-01-08T00:16:45;21.87;;;11.87;;
20814;SDS011;10568;48.176;16.316;2023-01-08T00:19:11;23.30;;;12.23;;
20814;SDS011;10568;48.176;16.316;2023-01-08T00:21:37;24.00;;;11.47;;
20814;SDS011;10568;48.176;16.316;2023-01-08T00:24:02;20.50;;;10.90;;
20814;SDS011;10568;48.176;16.316;2023-01-08T00:26:28;23.03;;;11.20;;
20814;SDS011;10568;48.176;16.316;2023-01-08T00:28:54;21.37;;;11.20;;
20814;SDS011;10568;48.176;16.316;2023-01-08T00:31:20;20.17;;;11.53;;
20814;SDS011;10568;48.176;16.316;2023-01-08T00:33:45;17.00;;;11.10;;
20814;SDS011;10568;48.176;16.316;2023-01-08T00:36:12;23.17;;;12.17;;
20814;SDS011;10568;48.176;16.316;2023-01-08T00:38:40;21.63;;;11.73;;
20814;SDS011;10568;48.176;16.316;2023-01-08T00:41:06;20.50;;;10.80;;
20814;SDS011;10568;48.176;16.316;2023-01-08T00:43:32;20.60;;;11.83;;
20814;SDS011;10568;48.176;16.316;2023-01-08T00:45:58;23.07;;;11.70;;
20814;SDS011;10568;48.176;16.316;2023-01-08T00:48:23;20.33;;;11.50;;
20814;SDS011;10568;48.176;16.316;2023-01-08T00:50:49;22.43;;;11.53;;
20814;SDS011;10568;48.176;16.316;2023-01-08T00:53:16;23.60;;;11.87;;
20814;SDS011;10568;48.176;16.316;2023-01-08T00:55:43;19.17;;;11.23;;
20814;SDS011;10568;48.176;16.316;2023-01-08T00:58:09;23.77;;;11.93;;
20814;SDS011;10568;48.176;16.316;2023-01-08T01:00:35;20.37;;;11.43;;
20814;SDS011;10568;48.176;16.316;2023-01-08T01:03:01;20.73;;;11.07;;
20814;SDS011;10568;48.176;16.316;2023-01-08T01:05:26;20.53;;;11.53;;
20814;SDS011;10568;48.176;16.316;2023-01-08T01:07:52;25.37;;;13.43;;
20814;SDS011;10568;48.176;16.316;2023-01-08T01:10:18;19.93;;;11.53;;
20814;SDS011;10568;48.176;16.316;2023-01-08T01:12:43;17.40;;;10.07;;
20814;SDS011;10568;48.176;16.316;2023-01-08T01:15:11;23.50;;;11.97;;
20814;SDS011;10568;48.176;16.316;2023-01-08T01:17:38;22.40;;;12.00;;
20814;SDS011;10568;48.176;16.316;2023-01-08T01:20:06;22.83;;;11.80;;
20814;SDS011;10568;48.176;16.316;2023-01-08T01:22:34;20.63;;;11.03;;
20814;SDS011;10568;48.176;16.316;2023-01-08T01:25:00;23.87;;;11.40;;
20814;SDS011;10568;48.176;16.316;2023-01-08T01:27:25;21.80;;;11.27;;
20814;SDS011;10568;48.176;16.316;2023-01-08T01:29:52;23.67;;;12.33;;
20814;SDS011;10568;48.176;16.316;2023-01-08T01:32:18;23.67;;;11.37;;
20814;SDS011;10568;48.176;16.316;2023-01-08T01:34:44;21.77;;;11.47;;
20814;SDS011;10568;48.176;16.316;2023-01-08T01:37:13;19.77;;;11.57;;
20814;SDS011;10568;48.176;16.316;2023-01-08T01:39:39;22.27;;;11.53;;
20814;SDS011;10568;48.176;16.316;2023-01-08T01:42:10;23.33;;;12.23;;
20814;SDS011;10568;48.176;16.316;2023-01-08T01:44:57;21.00;;;11.40;;
20814;SDS011;10568;48.176;16.316;2023-01-08T01:47:30;23.43;;;12.30;;
20814;SDS011;10568;48.176;16.316;2023-01-08T01:52:32;25.13;;;12.43;;
20814;SDS011;10568;48.176;16.316;2023-01-08T01:55:01;27.80;;;13.07;;
20814;SDS011;10568;48.176;16.316;2023-01-08T01:57:29;24.60;;;12.20;;
20814;SDS011;10568;48.176;16.316;2023-01-08T01:59:57;23.57;;;12.57;;
20814;SDS011;10568;48.176;16.316;2023-01-08T02:02:25;25.93;;;12.70;;
20814;SDS011;10568;48.176;16.316;2023-01-08T02:04:51;22.50;;;11.17;;
20814;SDS011;10568;48.176;16.316;2023-01-08T02:09:52;22.80;;;12.13;;
20814;SDS011;10568;48.176;16.316;2023-01-08T02:12:29;22.70;;;11.80;;
20814;SDS011;10568;48.176;16.316;2023-01-08T02:18:04;23.57;;;11.17;;
20814;SDS011;10568;48.176;16.316;2023-01-08T02:20:42;22.17;;;11.03;;
20814;SDS011;10568;48.176;16.316;2023-01-08T02:23:46;19.77;;;11.47;;
20814;SDS011;10568;48.176;16.316;2023-01-08T02:31:17;21.50;;;11.80;;
20814;SDS011;10568;48.176;16.316;2023-01-08T02:33:45;23.33;;;11.77;;
20814;SDS011;10568;48.176;16.316;2023-01-08T02:38:38;22.77;;;12.83;;
20814;SDS011;10568;48.176;16.316;2023-01-08T02:41:11;23.90;;;12.50;;
20814;SDS011;10568;48.176;16.316;2023-01-08T02:43:45;23.50;;;12.67;;
20814;SDS011;10568;48.176;16.316;2023-01-08T02:46:20;21.27;;;10.30;;
20814;SDS011;10568;48.176;16.316;2023-01-08T02:48:51;24.87;;;12.90;;
20814;SDS011;10568;48.176;16.316;2023-01-08T02:53:58;26.73;;;12.10;;
20814;SDS011;10568;48.176;16.316;2023-01-08T02:56:35;23.57;;;11.57;;
20814;SDS011;10568;48.176;16.316;2023-01-08T02:59:04;25.67;;;13.17;;
20814;SDS011;10568;48.176;16.316;2023-01-08T03:01:31;26.93;;;13.23;;
20814;SDS011;10568;48.176;16.316;2023-01-08T03:04:00;25.20;;;12.60;;
20814;SDS011;10568;48.176;16.316;2023-01-08T03:06:30;28.90;;;13.13;;
20814;SDS011;10568;48.176;16.316;2023-01-08T03:08:56;24.83;;;12.30;;
20814;SDS011;10568;48.176;16.316;2023-01-08T03:11:24;29.60;;;13.47;;
20814;SDS011;10568;48.176;16.316;2023-01-08T03:13:59;22.43;;;12.33;;
20814;SDS011;10568;48.176;16.316;2023-01-08T03:16:46;25.83;;;12.50;;
20814;SDS011;10568;48.176;16.316;2023-01-08T03:21:48;23.10;;;11.00;;
20814;SDS011;10568;48.176;16.316;2023-01-08T03:24:17;23.83;;;11.87;;
20814;SDS011;10568;48.176;16.316;2023-01-08T03:26:47;23.30;;;12.27;;
20814;SDS011;10568;48.176;16.316;2023-01-08T03:29:16;23.93;;;12.37;;
20814;SDS011;10568;48.176;16.316;2023-01-08T03:31:44;24.23;;;12.30;;
20814;SDS011;10568;48.176;16.316;2023-01-08T03:34:12;25.57;;;12.37;;
20814;SDS011;10568;48.176;16.316;2023-01-08T03:36:40;28.10;;;11.47;;
20814;SDS011;10568;48.176;16.316;2023-01-08T03:41:58;28.93;;;12.87;;
20814;SDS011;10568;48.176;16.316;2023-01-08T03:44:26;23.93;;;12.20;;
20814;SDS011;10568;48.176;16.316;2023-01-08T03:46:53;28.73;;;13.37;;
20814;SDS011;10568;48.176;16.316;2023-01-08T03:49:20;26.13;;;13.07;;
20814;SDS011;10568;48.176;16.316;2023-01-08T03:51:48;27.77;;;13.20;;
20814;SDS011;10568;48.176;16.316;2023-01-08T03:54:19;24.30;;;11.73;;
20814;SDS011;10568;48.176;16.316;2023-01-08T03:56:47;24.70;;;12.67;;
20814;SDS011;10568;48.176;16.316;2023-01-08T03:59:13;32.67;;;12.60;;
20814;SDS011;10568;48.176;16.316;2023-01-08T04:01:40;28.07;;;12.57;;
20814;SDS011;10568;48.176;16.316;2023-01-08T04:04:06;23.87;;;12.10;;
20814;SDS011;10568;48.176;16.316;2023-01-08T04:06:33;25.10;;;12.17;;
20814;SDS011;10568;48.176;16.316;2023-01-08T04:08:58;27.17;;;12.47;;
20814;SDS011;10568;48.176;16.316;2023-01-08T04:11:24;25.67;;;11.57;;
20814;SDS011;10568;48.176;16.316;2023-01-08T04:13:50;25.67;;;12.03;;
20814;SDS011;10568;48.176;16.316;2023-01-08T04:16:15;20.87;;;11.87;;
20814;SDS011;10568;48.176;16.316;2023-01-08T04:18:41;19.57;;;11.40;;
20814;SDS011;10568;48.176;16.316;2023-01-08T04:21:07;17.87;;;9.87;;
20814;SDS011;10568;48.176;16.316;2023-01-08T04:23:32;23.87;;;10.77;;
20814;SDS011;10568;48.176;16.316;2023-01-08T04:25:58;24.10;;;11.00;;
20814;SDS011;10568;48.176;16.316;2023-01-08T04:28:24;22.00;;;11.13;;
20814;SDS011;10568;48.176;16.316;2023-01-08T04:30:49;21.90;;;10.83;;
20814;SDS011;10568;48.176;16.316;2023-01-08T04:33:15;20.37;;;11.23;;
20814;SDS011;10568;48.176;16.316;2023-01-08T04:35:41;20.13;;;10.80;;
20814;SDS011;10568;48.176;16.316;2023-01-08T04:38:07;19.70;;;10.20;;
20814;SDS011;10568;48.176;16.316;2023-01-08T04:40:32;19.03;;;10.50;;
20814;SDS011;10568;48.176;16.316;2023-01-08T04:42:58;20.13;;;9.40;;
20814;SDS011;10568;48.176;16.316;2023-01-08T04:45:24;23.20;;;11.00;;
20814;SDS011;10568;48.176;16.316;2023-01-08T04:47:59;23.40;;;10.63;;
20814;SDS011;10568;48.176;16.316;2023-01-08T04:50:25;21.60;;;10.23;;
20814;SDS011;10568;48.176;16.316;2023-01-08T04:52:51;19.50;;;10.10;;
20814;SDS011;10568;48.176;16.316;2023-01-08T04:55:17;16.47;;;9.63;;
20814;SDS011;10568;48.176;16.316;2023-01-08T04:57:43;20.60;;;10.27;;
20814;SDS011;10568;48.176;16.316;2023-01-08T05:00:09;23.23;;;10.80;;
20814;SDS011;10568;48.176;16.316;2023-01-08T05:02:35;20.10;;;10.20;;
20814;SDS011;10568;48.176;16.316;2023-01-08T05:05:01;16.83;;;8.47;;
20814;SDS011;10568;48.176;16.316;2023-01-08T05:07:26;23.77;;;10.47;;
20814;SDS011;10568;48.176;16.316;2023-01-08T05:09:52;22.50;;;9.67;;
20814;SDS011;10568;48.176;16.316;2023-01-08T05:12:18;28.13;;;16.40;;
20814;SDS011;10568;48.176;16.316;2023-01-08T05:14:43;23.17;;;11.40;;
20814;SDS011;10568;48.176;16.316;2023-01-08T05:17:09;22.90;;;10.60;;
20814;SDS011;10568;48.176;16.316;2023-01-08T05:19:35;18.90;;;10.10;;
20814;SDS011;10568;48.176;16.316;2023-01-08T05:22:00;22.70;;;11.20;;
20814;SDS011;10568;48.176;16.316;2023-01-08T05:24:26;22.90;;;10.30;;
20814;SDS011;10568;48.176;16.316;2023-01-08T05:26:52;22.13;;;10.40;;
20814;SDS011;10568;48.176;16.316;2023-01-08T05:29:17;19.50;;;10.43;;
20814;SDS011;10568;48.176;16.316;2023-01-08T05:31:43;17.80;;;9.27;;
20814;SDS011;10568;48.176;16.316;2023-01-08T05:34:09;23.13;;;10.63;;
20814;SDS011;10568;48.176;16.316;2023-01-08T05:36:35;22.80;;;10.87;;
20814;SDS011;10568;48.176;16.316;2023-01-08T05:39:01;20.40;;;9.50;;
20814;SDS011;10568;48.176;16.316;2023-01-08T05:41:26;24.23;;;10.27;;
20814;SDS011;10568;48.176;16.316;2023-01-08T05:43:52;21.57;;;9.87;;
20814;SDS011;10568;48.176;16.316;2023-01-08T05:46:18;18.97;;;9.73;;
20814;SDS011;10568;48.176;16.316;2023-01-08T05:48:43;22.33;;;10.40;;
20814;SDS011;10568;48.176;16.316;2023-01-08T05:51:09;20.00;;;9.07;;
20814;SDS011;10568;48.176;16.316;2023-01-08T05:53:34;20.57;;;10.20;;
20814;SDS011;10568;48.176;16.316;2023-01-08T05:56:01;20.10;;;10.40;;
20814;SDS011;10568;48.176;16.316;2023-01-08T05:58:29;22.80;;;10.27;;
20814;SDS011;10568;48.176;16.316;2023-01-08T06:01:03;21.37;;;10.43;;
20814;SDS011;10568;48.176;16.316;2023-01-08T06:03:33;18.10;;;9.03;;
20814;SDS011;10568;48.176;16.316;2023-01-08T06:06:02;23.47;;;10.47;;
20814;SDS011;10568;48.176;16.316;2023-01-08T06:08:30;19.27;;;9.73;;
20814;SDS011;10568;48.176;16.316;2023-01-08T06:10:59;22.73;;;10.60;;
20814;SDS011;10568;48.176;16.316;2023-01-08T06:13:27;21.03;;;9.60;;
20814;SDS011;10568;48.176;16.316;2023-01-08T06:15:53;22.03;;;10.43;;
20814;SDS011;10568;48.176;16.316;2023-01-08T06:18:19;23.37;;;11.00;;
20814;SDS011;10568;48.176;16.316;2023-01-08T06:20:45;22.90;;;11.00;;
20814;SDS011;10568;48.176;16.316;2023-01-08T06:23:10;20.93;;;11.03;;
20814;SDS011;10568;48.176;16.316;2023-01-08T06:25:36;22.63;;;11.43;;
20814;SDS011;10568;48.176;16.316;2023-01-08T06:28:02;24.47;;;11.27;;
20814;SDS011;10568;48.176;16.316;2023-01-08T06:30:28;22.80;;;11.30;;
20814;SDS011;10568;48.176;16.316;2023-01-08T06:32:57;22.63;;;11.03;;
20814;SDS011;10568;48.176;16.316;2023-01-08T06:35:24;19.53;;;9.93;;
20814;SDS011;10568;48.176;16.316;2023-01-08T06:37:50;22.07;;;11.10;;
20814;SDS011;10568;48.176;16.316;2023-01-08T06:40:16;21.83;;;10.17;;
20814;SDS011;10568;48.176;16.316;2023-01-08T06:42:42;21.67;;;10.73;;
20814;SDS011;10568;48.176;16.316;2023-01-08T06:45:08;21.37;;;10.83;;
20814;SDS011;10568;48.176;16.316;2023-01-08T06:47:34;19.80;;;9.67;;
20814;SDS011;10568;48.176;16.316;2023-01-08T06:50:00;21.70;;;10.20;;
20814;SDS011;10568;48.176;16.316;2023-01-08T06:52:26;20.30;;;10.00;;
20814;SDS011;10568;48.176;16.316;2023-01-08T06:54:52;20.43;;;10.53;;
20814;SDS011;10568;48.176;16.316;2023-01-08T06:57:17;21.00;;;10.97;;
20814;SDS011;10568;48.176;16.316;2023-01-08T06:59:43;21.90;;;10.47;;
20814;SDS011;10568;48.176;16.316;2023-01-08T07:02:11;22.00;;;10.77;;
20814;SDS011;10568;48.176;16.316;2023-01-08T07:04:38;23.67;;;11.87;;
20814;SDS011;10568;48.176;16.316;2023-01-08T07:07:04;22.47;;;11.30;;
20814;SDS011;10568;48.176;16.316;2023-01-08T07:09:29;21.03;;;9.87;;
20814;SDS011;10568;48.176;16.316;2023-01-08T07:11:55;25.50;;;10.97;;
20814;SDS011;10568;48.176;16.316;2023-01-08T07:14:20;22.70;;;11.13;;
20814;SDS011;10568;48.176;16.316;2023-01-08T07:16:46;23.37;;;10.30;;
20814;SDS011;10568;48.176;16.316;2023-01-08T07:19:12;22.43;;;10.17;;
20814;SDS011;10568;48.176;16.316;2023-01-08T07:21:37;18.10;;;9.47;;
20814;SDS011;10568;48.176;16.316;2023-01-08T07:24:03;20.40;;;10.17;;
20814;SDS011;10568;48.176;16.316;2023-01-08T07:26:30;24.23;;;11.57;;
20814;SDS011;10568;48.176;16.316;2023-01-08T07:28:55;21.00;;;10.20;;
20814;SDS011;10568;48.176;16.316;2023-01-08T07:31:22;25.90;;;10.30;;
20814;SDS011;10568;48.176;16.316;2023-01-08T07:33:48;23.37;;;11.47;;
20814;SDS011;10568;48.176;16.316;2023-01-08T07:36:14;22.57;;;10.93;;
20814;SDS011;10568;48.176;16.316;2023-01-08T07:38:41;20.40;;;10.20;;
20814;SDS011;10568;48.176;16.316;2023-01-08T07:41:06;21.23;;;11.50;;
20814;SDS011;10568;48.176;16.316;2023-01-08T07:43:32;19.87;;;10.10;;
20814;SDS011;10568;48.176;16.316;2023-01-08T07:46:00;21.37;;;10.80;;
20814;SDS011;10568;48.176;16.316;2023-01-08T07:48:27;21.27;;;10.90;;
20814;SDS011;10568;48.176;16.316;2023-01-08T07:50:53;20.10;;;10.40;;
20814;SDS011;10568;48.176;16.316;2023-01-08T07:53:18;21.97;;;10.63;;
20814;SDS011;10568;48.176;16.316;2023-01-08T07:55:44;21.53;;;10.03;;
20814;SDS011;10568;48.176;16.316;2023-01-08T07:58:12;20.27;;;10.37;;
20814;SDS011;10568;48.176;16.316;2023-01-08T08:00:38;20.63;;;10.20;;
20814;SDS011;10568;48.176;16.316;2023-01-08T08:03:05;25.33;;;10.93;;
20814;SDS011;10568;48.176;16.316;2023-01-08T08:05:33;23.83;;;10.20;;
20814;SDS011;10568;48.176;16.316;2023-01-08T08:07:59;22.63;;;10.63;;
20814;SDS011;10568;48.176;16.316;2023-01-08T08:10:25;21.20;;;11.20;;
20814;SDS011;10568;48.176;16.316;2023-01-08T08:12:51;20.03;;;10.47;;
20814;SDS011;10568;48.176;16.316;2023-01-08T08:15:16;22.70;;;10.50;;
20814;SDS011;10568;48.176;16.316;2023-01-08T08:17:46;22.00;;;10.87;;
20814;SDS011;10568;48.176;16.316;2023-01-08T08:20:12;23.20;;;9.53;;
20814;SDS011;10568;48.176;16.316;2023-01-08T08:22:38;19.47;;;9.90;;
20814;SDS011;10568;48.176;16.316;2023-01-08T08:25:03;17.63;;;9.53;;
20814;SDS011;10568;48.176;16.316;2023-01-08T08:27:29;17.07;;;8.57;;
20814;SDS011;10568;48.176;16.316;2023-01-08T08:29:55;20.50;;;9.70;;
20814;SDS011;10568;48.176;16.316;2023-01-08T08:32:20;17.33;;;9.30;;
20814;SDS011;10568;48.176;16.316;2023-01-08T08:34:46;17.70;;;8.47;;
20814;SDS011;10568;48.176;16.316;2023-01-08T08:37:14;18.27;;;8.30;;
20814;SDS011;10568;48.176;16.316;2023-01-08T08:39:40;16.70;;;8.77;;
20814;SDS011;10568;48.176;16.316;2023-01-08T08:42:06;20.10;;;8.30;;
20814;SDS011;10568;48.176;16.316;2023-01-08T08:44:31;16.53;;;8.27;;
20814;SDS011;10568;48.176;16.316;2023-01-08T08:46:57;20.57;;;8.83;;
20814;SDS011;10568;48.176;16.316;2023-01-08T08:49:23;18.30;;;8.37;;
20814;SDS011;10568;48.176;16.316;2023-01-08T08:51:49;19.67;;;8.20;;
20814;SDS011;10568;48.176;16.316;2023-01-08T08:54:14;17.83;;;8.40;;
20814;SDS011;10568;48.176;16.316;2023-01-08T08:56:40;16.83;;;8.27;;
20814;SDS011;10568;48.176;16.316;2023-01-08T08:59:05;15.17;;;7.47;;
20814;SDS011;10568;48.176;16.316;2023-01-08T09:01:33;14.10;;;7.10;;
20814;SDS011;10568;48.176;16.316;2023-01-08T09:03:59;14.97;;;7.93;;
20814;SDS011;10568;48.176;16.316;2023-01-08T09:06:24;16.30;;;7.67;;
20814;SDS011;10568;48.176;16.316;2023-01-08T09:08:51;18.67;;;8.47;;
20814;SDS011;10568;48.176;16.316;2023-01-08T09:11:19;19.43;;;8.47;;
20814;SDS011;10568;48.176;16.316;2023-01-08T09:13:45;17.37;;;8.63;;
20814;SDS011;10568;48.176;16.316;2023-01-08T09:16:10;14.73;;;8.07;;
20814;SDS011;10568;48.176;16.316;2023-01-08T09:18:36;16.37;;;8.30;;
20814;SDS011;10568;48.176;16.316;2023-01-08T09:21:05;18.30;;;7.47;;
20814;SDS011;10568;48.176;16.316;2023-01-08T09:23:32;15.23;;;7.73;;
20814;SDS011;10568;48.176;16.316;2023-01-08T09:25:59;19.17;;;8.97;;
20814;SDS011;10568;48.176;16.316;2023-01-08T09:28:26;16.07;;;8.47;;
20814;SDS011;10568;48.176;16.316;2023-01-08T09:30:51;14.53;;;7.53;;
20814;SDS011;10568;48.176;16.316;2023-01-08T09:33:17;19.53;;;8.80;;
20814;SDS011;10568;48.176;16.316;2023-01-08T09:35:43;17.20;;;9.40;;
20814;SDS011;10568;48.176;16.316;2023-01-08T09:38:08;17.50;;;7.57;;
20814;SDS011;10568;48.176;16.316;2023-01-08T09:40:37;16.30;;;8.23;;
20814;SDS011;10568;48.176;16.316;2023-01-08T09:43:07;16.93;;;8.07;;
20814;SDS011;10568;48.176;16.316;2023-01-08T09:45:38;15.23;;;8.03;;
20814;SDS011;10568;48.176;16.316;2023-01-08T09:48:06;16.43;;;8.73;;
20814;SDS011;10568;48.176;16.316;2023-01-08T09:50:41;19.07;;;7.93;;
20814;SDS011;10568;48.176;16.316;2023-01-08T09:53:13;15.53;;;7.87;;
20814;SDS011;10568;48.176;16.316;2023-01-08T09:55:41;17.90;;;8.17;;
20814;SDS011;10568;48.176;16.316;2023-01-08T10:00:54;16.03;;;8.47;;
20814;SDS011;10568;48.176;16.316;2023-01-08T10:03:21;19.70;;;8.93;;
20814;SDS011;10568;48.176;16.316;2023-01-08T10:05:53;17.87;;;8.17;;
20814;SDS011;10568;48.176;16.316;2023-01-08T10:08:18;20.27;;;8.47;;
20814;SDS011;10568;48.176;16.316;2023-01-08T10:10:44;16.50;;;7.77;;
20814;SDS011;10568;48.176;16.316;2023-01-08T10:13:10;16.33;;;8.10;;
20814;SDS011;10568;48.176;16.316;2023-01-08T10:15:37;15.00;;;7.30;;
20814;SDS011;10568;48.176;16.316;2023-01-08T10:18:05;19.17;;;7.97;;
20814;SDS011;10568;48.176;16.316;2023-01-08T10:20:36;15.17;;;7.13;;
20814;SDS011;10568;48.176;16.316;2023-01-08T10:23:10;15.60;;;7.93;;
20814;SDS011;10568;48.176;16.316;2023-01-08T10:25:54;18.63;;;8.53;;
20814;SDS011;10568;48.176;16.316;2023-01-08T10:28:23;19.13;;;6.40;;
20814;SDS011;10568;48.176;16.316;2023-01-08T10:30:53;14.07;;;7.23;;
20814;SDS011;10568;48.176;16.316;2023-01-08T10:33:30;19.10;;;8.53;;
20814;SDS011;10568;48.176;16.316;2023-01-08T10:36:03;15.50;;;7.00;;
20814;SDS011;10568;48.176;16.316;2023-01-08T10:38:33;14.53;;;7.27;;
20814;SDS011;10568;48.176;16.316;2023-01-08T10:41:17;16.07;;;6.83;;
20814;SDS011;10568;48.176;16.316;2023-01-08T10:46:33;18.73;;;8.33;;
20814;SDS011;10568;48.176;16.316;2023-01-08T10:49:05;15.27;;;7.30;;
20814;SDS011;10568;48.176;16.316;2023-01-08T10:51:46;18.47;;;7.73;;
20814;SDS011;10568;48.176;16.316;2023-01-08T10:54:27;20.67;;;8.20;;
20814;SDS011;10568;48.176;16.316;2023-01-08T10:57:22;13.17;;;6.80;;
20814;SDS011;10568;48.176;16.316;2023-01-08T10:59:49;14.53;;;7.17;;
20814;SDS011;10568;48.176;16.316;2023-01-08T11:04:56;16.77;;;7.53;;
20814;SDS011;10568;48.176;16.316;2023-01-08T11:07:23;17.77;;;7.23;;
20814;SDS011;10568;48.176;16.316;2023-01-08T11:09:50;17.70;;;7.60;;
20814;SDS011;10568;48.176;16.316;2023-01-08T11:12:26;15.43;;;7.60;;
20814;SDS011;10568;48.176;16.316;2023-01-08T11:14:57;13.73;;;7.23;;
20814;SDS011;10568;48.176;16.316;2023-01-08T11:17:23;16.50;;;7.43;;
20814;SDS011;10568;48.176;16.316;2023-01-08T11:19:51;13.63;;;7.17;;
20814;SDS011;10568;48.176;16.316;2023-01-08T11:22:21;14.53;;;6.97;;
20814;SDS011;10568;48.176;16.316;2023-01-08T11:24:48;12.50;;;7.03;;
20814;SDS011;10568;48.176;16.316;2023-01-08T11:30:02;19.70;;;7.30;;
20814;SDS011;10568;48.176;16.316;2023-01-08T11:32:45;14.90;;;7.03;;
20814;SDS011;10568;48.176;16.316;2023-01-08T11:40:31;18.50;;;6.90;;
20814;SDS011;10568;48.176;16.316;2023-01-08T11:51:42;16.17;;;6.73;;
20814;SDS011;10568;48.176;16.316;2023-01-08T11:54:22;15.80;;;6.23;;
20814;SDS011;10568;48.176;16.316;2023-01-08T11:56:56;15.20;;;6.83;;
20814;SDS011;10568;48.176;16.316;2023-01-08T11:59:47;13.67;;;6.77;;
20814;SDS011;10568;48.176;16.316;2023-01-08T12:02:29;10.37;;;6.00;;
20814;SDS011;10568;48.176;16.316;2023-01-08T12:07:37;18.80;;;7.40;;
20814;SDS011;10568;48.176;16.316;2023-01-08T12:21:18;17.73;;;8.50;;
20814;SDS011;10568;48.176;16.316;2023-01-08T12:32:09;13.23;;;6.77;;
20814;SDS011;10568;48.176;16.316;2023-01-08T12:37:43;17.23;;;8.37;;
20814;SDS011;10568;48.176;16.316;2023-01-08T12:40:21;18.87;;;8.67;;
20814;SDS011;10568;48.176;16.316;2023-01-08T12:42:50;19.67;;;9.13;;
20814;SDS011;10568;48.176;16.316;2023-01-08T12:47:52;15.03;;;7.93;;
20814;SDS011;10568;48.176;16.316;2023-01-08T12:50:34;16.40;;;7.77;;
20814;SDS011;10568;48.176;16.316;2023-01-08T12:53:08;17.77;;;7.63;;
20814;SDS011;10568;48.176;16.316;2023-01-08T12:55:45;18.90;;;8.47;;
20814;SDS011;10568;48.176;16.316;2023-01-08T13:03:20;15.13;;;7.57;;
20814;SDS011;10568;48.176;16.316;2023-01-08T13:05:49;15.93;;;8.27;;
20814;SDS011;10568;48.176;16.316;2023-01-08T13:10:50;13.87;;;7.23;;
20814;SDS011;10568;48.176;16.316;2023-01-08T13:13:27;16.37;;;7.80;;
20814;SDS011;10568;48.176;16.316;2023-01-08T13:18:36;15.40;;;7.37;;
20814;SDS011;10568;48.176;16.316;2023-01-08T13:21:02;15.93;;;8.13;;
20814;SDS011;10568;48.176;16.316;2023-01-08T13:23:30;20.87;;;8.17;;
20814;SDS011;10568;48.176;16.316;2023-01-08T13:26:02;17.63;;;8.17;;
20814;SDS011;10568;48.176;16.316;2023-01-08T13:31:25;16.47;;;8.00;;
20814;SDS011;10568;48.176;16.316;2023-01-08T13:33:52;15.87;;;7.13;;
20814;SDS011;10568;48.176;16.316;2023-01-08T13:38:46;14.33;;;7.10;;
20814;SDS011;10568;48.176;16.316;2023-01-08T13:41:32;16.70;;;7.20;;
20814;SDS011;10568;48.176;16.316;2023-01-08T13:46:28;14.13;;;6.73;;
20814;SDS011;10568;48.176;16.316;2023-01-08T13:54:15;15.13;;;7.43;;
20814;SDS011;10568;48.176;16.316;2023-01-08T13:56:44;15.23;;;7.40;;
20814;SDS011;10568;48.176;16.316;2023-01-08T14:02:00;12.43;;;7.07;;
20814;SDS011;10568;48.176;16.316;2023-01-08T14:04:25;16.63;;;7.17;;
20814;SDS011;10568;48.176;16.316;2023-01-08T14:06:51;17.70;;;7.73;;
20814;SDS011;10568;48.176;16.316;2023-01-08T14:09:21;14.67;;;7.43;;
20814;SDS011;10568;48.176;16.316;2023-01-08T14:11:49;13.07;;;6.83;;
20814;SDS011;10568;48.176;16.316;2023-01-08T14:14:20;13.43;;;7.13;;
20814;SDS011;10568;48.176;16.316;2023-01-08T14:16:48;12.40;;;6.03;;
20814;SDS011;10568;48.176;16.316;2023-01-08T14:19:24;16.63;;;8.63;;
20814;SDS011;10568;48.176;16.316;2023-01-08T14:21:51;14.07;;;7.60;;
20814;SDS011;10568;48.176;16.316;2023-01-08T14:24:18;13.40;;;6.77;;
20814;SDS011;10568;48.176;16.316;2023-01-08T14:26:54;11.37;;;6.53;;
20814;SDS011;10568;48.176;16.316;2023-01-08T14:29:26;12.90;;;6.97;;
20814;SDS011;10568;48.176;16.316;2023-01-08T14:31:59;15.37;;;7.47;;
20814;SDS011;10568;48.176;16.316;2023-01-08T14:34:25;13.37;;;7.20;;
20814;SDS011;10568;48.176;16.316;2023-01-08T14:36:55;13.80;;;6.93;;
20814;SDS011;10568;48.176;16.316;2023-01-08T14:39:22;16.07;;;7.40;;
20814;SDS011;10568;48.176;16.316;2023-01-08T14:41:48;13.87;;;7.60;;
20814;SDS011;10568;48.176;16.316;2023-01-08T14:44:36;17.73;;;8.03;;
20814;SDS011;10568;48.176;16.316;2023-01-08T14:47:03;13.17;;;6.37;;
20814;SDS011;10568;48.176;16.316;2023-01-08T14:49:31;13.23;;;7.40;;
20814;SDS011;10568;48.176;16.316;2023-01-08T14:52:04;12.83;;;6.47;;
20814;SDS011;10568;48.176;16.316;2023-01-08T14:54:36;12.80;;;6.50;;
20814;SDS011;10568;48.176;16.316;2023-01-08T14:57:01;15.47;;;6.57;;
20814;SDS011;10568;48.176;16.316;2023-01-08T14:59:30;11.80;;;6.13;;
20814;SDS011;10568;48.176;16.316;2023-01-08T15:01:58;15.20;;;7.43;;
20814;SDS011;10568;48.176;16.316;2023-01-08T15:04:27;12.10;;;6.40;;
20814;SDS011;10568;48.176;16.316;2023-01-08T15:07:40;14.00;;;7.00;;
20814;SDS011;10568;48.176;16.316;2023-01-08T15:09:59;10.27;;;5.57;;
20814;SDS011;10568;48.176;16.316;2023-01-08T15:12:29;12.40;;;5.53;;
20814;SDS011;10568;48.176;16.316;2023-01-08T15:15:07;13.97;;;6.50;;
20814;SDS011;10568;48.176;16.316;2023-01-08T15:17:36;14.80;;;6.53;;
20814;SDS011;10568;48.176;16.316;2023-01-08T15:20:04;12.37;;;6.97;;
20814;SDS011;10568;48.176;16.316;2023-01-08T15:22:30;11.50;;;6.20;;
20814;SDS011;10568;48.176;16.316;2023-01-08T15:24:57;12.73;;;6.27;;
20814;SDS011;10568;48.176;16.316;2023-01-08T15:27:25;12.80;;;6.90;;
20814;SDS011;10568;48.176;16.316;2023-01-08T15:29:53;10.37;;;5.70;;
20814;SDS011;10568;48.176;16.316;2023-01-08T15:32:26;14.23;;;6.90;;
20814;SDS011;10568;48.176;16.316;2023-01-08T15:34:54;15.87;;;6.50;;
20814;SDS011;10568;48.176;16.316;2023-01-08T15:37:19;11.63;;;6.20;;
20814;SDS011;10568;48.176;16.316;2023-01-08T15:39:45;12.73;;;6.50;;
20814;SDS011;10568;48.176;16.316;2023-01-08T15:42:18;13.80;;;6.87;;
20814;SDS011;10568;48.176;16.316;2023-01-08T15:45:14;11.00;;;5.73;;
20814;SDS011;10568;48.176;16.316;2023-01-08T15:47:41;12.30;;;6.10;;
20814;SDS011;10568;48.176;16.316;2023-01-08T15:50:07;11.83;;;5.53;;
20814;SDS011;10568;48.176;16.316;2023-01-08T15:52:35;11.57;;;5.53;;
20814;SDS011;10568;48.176;16.316;2023-01-08T15:55:02;12.27;;;6.60;;
20814;SDS011;10568;48.176;16.316;2023-01-08T15:57:28;13.40;;;5.60;;
20814;SDS011;10568;48.176;16.316;2023-01-08T15:59:54;11.97;;;6.40;;
20814;SDS011;10568;48.176;16.316;2023-01-08T16:02:20;15.47;;;7.47;;
20814;SDS011;10568;48.176;16.316;2023-01-08T16:04:52;12.40;;;6.10;;
20814;SDS011;10568;48.176;16.316;2023-01-08T16:07:19;16.17;;;6.03;;